Time;durP1;ratioP1;P1;durP2;ratioP2;P2;SDS_P1;SDS_P2;PMS_P1;PMS_P2;Temp;Humidity;BMP_temperature;BMP_pressure;BME280_temperature;BME280_humidity;BME280_pressure;Samples;Min_cycle;Max_cycle;Signal;HPM_P1;HPM_P2
2021/01/16 00:00:33;;;;;;;18.98;5.60;;;;;;;9.13;100.00;102767.72;5070429;28;20048;-66
2021/01/16 00:02:59;;;;;;;33.63;6.40;;;;;;;9.11;100.00;102748.00;5070551;28;20032;-65
2021/01/16 00:05:26;;;;;;;34.33;6.60;;;;;;;9.10;100.00;102740.00;5070684;28;20044;-65
2021/01/16 00:08:02;;;;;;;24.58;5.43;;;;;;;9.11;100.00;102753.44;5072294;28;20366;-65
2021/01/16 00:10:29;;;;;;;27.42;7.60;;;;;;;9.11;100.00;102737.09;5056717;28;20036;-66
2021/01/16 00:12:55;;;;;;;25.83;5.80;;;;;;;9.13;100.00;102723.28;5074598;28;20047;-66
2021/01/16 00:15:22;;;;;;;33.92;6.65;;;;;;;9.12;100.00;102722.44;5074437;28;20036;-66
2021/01/16 00:18:01;;;;;;;26.38;6.55;;;;;;;9.14;100.00;102704.00;5074323;28;20040;-66
2021/01/16 00:20:27;;;;;;;26.20;4.90;;;;;;;9.15;100.00;102704.84;5074258;28;20044;-66
2021/01/16 00:22:53;;;;;;;24.95;5.63;;;;;;;9.13;100.00;102713.22;5074261;28;20498;-66
2021/01/16 00:25:18;;;;;;;26.17;5.80;;;;;;;9.12;100.00;102711.53;5073971;28;20049;-66
2021/01/16 00:27:44;;;;;;;30.00;5.82;;;;;;;9.15;100.00;102705.69;5073992;28;20028;-65
2021/01/16 00:30:10;;;;;;;29.67;5.70;;;;;;;9.17;100.00;102700.88;5073940;28;20139;-66
2021/01/16 00:32:38;;;;;;;24.15;5.30;;;;;;;9.18;100.00;102716.22;5073914;28;20047;-66
2021/01/16 00:35:08;;;;;;;32.67;5.13;;;;;;;9.21;100.00;102699.50;5073888;28;20135;-66
2021/01/16 00:37:34;;;;;;;35.72;4.70;;;;;;;9.21;100.00;102694.06;5073988;28;20143;-66
2021/01/16 00:40:00;;;;;;;30.05;4.13;;;;;;;9.17;100.00;102676.34;5073914;28;20143;-66
2021/01/16 00:42:26;;;;;;;21.13;3.38;;;;;;;9.17;100.00;102679.09;5073806;28;20036;-66
2021/01/16 00:44:51;;;;;;;32.88;3.92;;;;;;;9.15;100.00;102662.06;5073661;28;20044;-66
2021/01/16 00:47:17;;;;;;;31.25;4.18;;;;;;;9.15;100.00;102658.50;5073695;28;20040;-66
2021/01/16 00:49:42;;;;;;;23.27;2.67;;;;;;;9.17;100.00;102654.53;5073525;28;20036;-66
2021/01/16 00:52:08;;;;;;;24.60;4.00;;;;;;;9.19;100.00;102652.47;5073591;28;20043;-66
2021/01/16 00:54:33;;;;;;;27.80;3.45;;;;;;;9.21;100.00;102658.59;5073638;28;20063;-66
2021/01/16 00:56:59;;;;;;;25.13;3.75;;;;;;;9.23;100.00;102642.91;5073493;28;20511;-66
2021/01/16 00:59:24;;;;;;;31.58;3.25;;;;;;;9.24;100.00;102630.97;5073503;28;20580;-66
2021/01/16 01:01:50;;;;;;;16.58;3.42;;;;;;;9.28;100.00;102640.44;5073341;28;20048;-66
2021/01/16 01:04:16;;;;;;;24.45;2.50;;;;;;;9.30;100.00;102632.91;5073369;28;20043;-67
2021/01/16 01:06:41;;;;;;;25.90;3.03;;;;;;;9.33;100.00;102621.63;5073358;28;20482;-66
2021/01/16 01:09:07;;;;;;;25.75;2.83;;;;;;;9.35;100.00;102621.44;5073373;28;20406;-66
2021/01/16 01:11:32;;;;;;;32.03;4.40;;;;;;;9.39;100.00;102609.13;5073404;28;20111;-66
2021/01/16 01:13:58;;;;;;;31.40;4.43;;;;;;;9.41;100.00;102595.28;5073432;28;20131;-65
2021/01/16 01:16:23;;;;;;;28.27;3.23;;;;;;;9.42;100.00;102594.25;5073137;28;20036;-66
2021/01/16 01:18:49;;;;;;;32.90;4.32;;;;;;;9.42;100.00;102597.84;5072648;28;20040;-66
2021/01/16 01:21:15;;;;;;;35.97;5.00;;;;;;;9.44;100.00;102589.44;5072610;28;20410;-66
2021/01/16 01:23:40;;;;;;;27.70;3.45;;;;;;;9.46;100.00;102598.28;5072791;28;20036;-66
2021/01/16 01:26:06;;;;;;;31.67;3.85;;;;;;;9.48;100.00;102582.56;5073133;28;20547;-66
2021/01/16 01:28:31;;;;;;;23.73;3.67;;;;;;;9.48;100.00;102579.84;5073000;28;20429;-66
2021/01/16 01:30:57;;;;;;;34.35;3.13;;;;;;;9.50;100.00;102588.66;5072943;28;20461;-66
2021/01/16 01:33:23;;;;;;;43.92;3.92;;;;;;;9.50;100.00;102583.22;5072747;28;20036;-66
2021/01/16 01:35:48;;;;;;;40.38;4.97;;;;;;;9.51;100.00;102574.84;5072716;28;20407;-66
2021/01/16 01:38:17;;;;;;;43.03;5.13;;;;;;;9.53;100.00;102577.38;5054676;28;20040;-66
2021/01/16 01:40:44;;;;;;;43.63;5.32;;;;;;;9.53;100.00;102563.72;5054737;28;20037;-66
2021/01/16 01:43:09;;;;;;;42.83;5.20;;;;;;;9.51;100.00;102587.63;5072694;28;20044;-66
2021/01/16 01:45:35;;;;;;;38.83;4.25;;;;;;;9.46;100.00;102590.94;5072701;28;20495;-65
2021/01/16 01:48:01;;;;;;;25.88;3.40;;;;;;;9.45;100.00;102580.22;5072576;28;20036;-66
2021/01/16 01:50:29;;;;;;;45.10;3.78;;;;;;;9.42;100.00;102569.72;5072398;28;20202;-66
2021/01/16 01:52:56;;;;;;;23.25;3.72;;;;;;;9.41;100.00;102554.38;5072446;28;20121;-66
2021/01/16 01:55:23;;;;;;;28.75;3.42;;;;;;;9.39;100.00;102537.38;5072396;28;20120;-66
2021/01/16 01:57:56;;;;;;;28.83;2.60;;;;;;;9.29;100.00;102532.22;5072385;28;20418;-66
2021/01/16 02:00:26;;;;;;;19.15;2.45;;;;;;;9.22;100.00;102548.50;5036895;28;20512;-66
2021/01/16 02:02:57;;;;;;;28.25;3.15;;;;;;;9.22;100.00;102574.94;5072212;28;20028;-66
2021/01/16 02:05:22;;;;;;;44.97;3.55;;;;;;;9.23;100.00;102555.66;5072240;28;20039;-65
2021/01/16 02:07:48;;;;;;;33.40;4.25;;;;;;;9.24;100.00;102554.63;5072082;28;20033;-66
2021/01/16 02:10:24;;;;;;;28.63;2.78;;;;;;;9.23;100.00;102522.94;5072031;28;20578;-65
2021/01/16 02:12:55;;;;;;;29.15;4.05;;;;;;;9.20;100.00;102528.78;5072098;28;20123;-66
2021/01/16 02:15:23;;;;;;;34.88;2.95;;;;;;;9.19;100.00;102515.31;5072048;28;20024;-65
2021/01/16 02:17:55;;;;;;;36.92;2.42;;;;;;;9.19;100.00;102504.41;5072400;28;20067;-66
2021/01/16 02:20:26;;;;;;;40.65;3.75;;;;;;;9.20;100.00;102526.03;5071935;28;20047;-66
2021/01/16 02:23:08;;;;;;;29.67;3.05;;;;;;;9.20;100.00;102534.22;5071768;28;20086;-66
2021/01/16 02:25:40;;;;;;;45.38;5.60;;;;;;;9.22;100.00;102531.31;5071588;28;20056;-66
2021/01/16 02:28:07;;;;;;;39.75;4.90;;;;;;;9.21;100.00;102529.63;5071808;28;20036;-66
2021/01/16 02:30:39;;;;;;;26.13;2.78;;;;;;;9.19;100.00;102527.06;5071613;28;20085;-66
2021/01/16 02:33:08;;;;;;;27.20;3.92;;;;;;;9.15;100.00;102531.22;5071771;28;20040;-66
2021/01/16 02:35:39;;;;;;;30.83;2.55;;;;;;;9.14;100.00;102537.69;5071589;28;20037;-66
2021/01/16 02:38:30;;;;;;;28.20;3.17;;;;;;;9.15;100.00;102531.22;5071569;28;20040;-66
2021/01/16 02:41:05;;;;;;;29.70;2.90;;;;;;;9.16;100.00;102505.63;5071517;28;20032;-66
2021/01/16 02:43:39;;;;;;;28.45;3.83;;;;;;;9.17;100.00;102496.41;5071411;28;20038;-65
2021/01/16 02:46:22;;;;;;;35.47;3.90;;;;;;;9.20;100.00;102501.50;5071525;28;20044;-66
2021/01/16 02:49:25;;;;;;;27.73;3.55;;;;;;;9.21;100.00;102502.34;5071432;28;20036;-66
2021/01/16 02:52:17;;;;;;;25.63;3.53;;;;;;;9.20;100.00;102498.78;5071348;28;20379;-66
2021/01/16 02:54:44;;;;;;;28.10;2.97;;;;;;;9.18;100.00;102492.66;5071358;28;20485;-66
2021/01/16 02:57:10;;;;;;;26.75;2.88;;;;;;;9.18;100.00;102489.94;5071162;28;20109;-66
2021/01/16 02:59:40;;;;;;;40.67;4.00;;;;;;;9.18;100.00;102476.28;5071166;28;20043;-66
2021/01/16 03:02:07;;;;;;;31.38;3.85;;;;;;;9.19;100.00;102460.78;5071101;28;20044;-66
2021/01/16 03:04:34;;;;;;;32.65;2.97;;;;;;;9.19;100.00;102471.69;5071213;28;20036;-67
2021/01/16 03:07:00;;;;;;;31.55;3.13;;;;;;;9.20;100.00;102485.16;5053363;28;20028;-65
2021/01/16 03:09:29;;;;;;;29.75;4.28;;;;;;;9.22;100.00;102488.53;5071092;28;20435;-66
2021/01/16 03:11:56;;;;;;;33.95;3.95;;;;;;;9.25;100.00;102503.66;5070990;28;20058;-67
2021/01/16 03:14:24;;;;;;;32.83;3.35;;;;;;;9.24;100.00;102486.44;5070993;28;20131;-66
2021/01/16 03:17:16;;;;;;;35.50;4.47;;;;;;;9.25;100.00;102484.56;5070981;28;20133;-66
2021/01/16 03:19:49;;;;;;;32.40;3.85;;;;;;;9.24;100.00;102453.72;5070913;28;20037;-66
2021/01/16 03:22:22;;;;;;;30.52;3.67;;;;;;;9.25;100.00;102428.16;5071066;28;20040;-66
2021/01/16 03:24:52;;;;;;;34.55;3.88;;;;;;;9.27;100.00;102426.06;5070641;28;20048;-66
2021/01/16 03:27:19;;;;;;;44.28;5.13;;;;;;;9.29;100.00;102434.91;5070918;28;20039;-66
2021/01/16 03:29:45;;;;;;;40.80;5.07;;;;;;;9.32;100.00;102456.31;5070740;28;20072;-66
2021/01/16 03:32:13;;;;;;;36.85;3.95;;;;;;;9.30;100.00;102425.69;5070801;28;20397;-66
2021/01/16 03:34:42;;;;;;;31.15;3.70;;;;;;;9.26;100.00;102405.31;5070764;28;20119;-66
2021/01/16 03:37:08;;;;;;;42.13;4.85;;;;;;;9.24;100.00;102404.66;5070783;28;20040;-66
2021/01/16 03:39:35;;;;;;;43.10;5.30;;;;;;;9.20;100.00;102403.38;5070649;28;20383;-66
2021/01/16 03:42:01;;;;;;;33.80;3.83;;;;;;;9.20;100.00;102411.53;5053229;28;20131;-66
2021/01/16 03:44:27;;;;;;;34.85;4.38;;;;;;;9.19;100.00;102401.66;5077451;28;20046;-66
2021/01/16 03:46:53;;;;;;;37.38;4.47;;;;;;;9.20;100.00;102397.91;5059353;28;20036;-66
2021/01/16 03:49:19;;;;;;;55.03;6.13;;;;;;;9.21;100.00;102383.25;5077313;28;20406;-66
2021/01/16 03:51:45;;;;;;;50.50;5.68;;;;;;;9.23;100.00;102378.44;5077315;28;20040;-66
2021/01/16 03:54:10;;;;;;;45.30;5.20;;;;;;;9.28;100.00;102384.13;5077269;28;20036;-66
2021/01/16 03:56:36;;;;;;;44.42;4.80;;;;;;;9.31;100.00;102383.72;5077237;28;20046;-66
2021/01/16 03:59:05;;;;;;;42.63;4.07;;;;;;;9.32;100.00;102369.06;5077204;28;20048;-66
2021/01/16 04:01:32;;;;;;;33.00;4.50;;;;;;;9.31;100.00;102366.53;5077145;28;20040;-66
2021/01/16 04:03:59;;;;;;;41.25;5.90;;;;;;;9.28;100.00;102370.50;5077177;28;20045;-66
2021/01/16 04:06:25;;;;;;;43.83;4.13;;;;;;;9.26;100.00;102361.66;5077188;28;20040;-66
2021/01/16 04:08:50;;;;;;;46.28;5.45;;;;;;;9.24;100.00;102352.84;5077175;28;20592;-67
2021/01/16 04:11:16;;;;;;;48.78;5.18;;;;;;;9.25;100.00;102346.34;5077166;28;20033;-66
2021/01/16 04:13:42;;;;;;;45.70;5.13;;;;;;;9.24;100.00;102339.22;5077111;28;20097;-66
2021/01/16 04:16:07;;;;;;;50.90;6.18;;;;;;;9.25;100.00;102330.00;5077141;28;20106;-66
2021/01/16 04:18:34;;;;;;;49.50;7.78;;;;;;;9.24;100.00;102325.59;5076878;28;20134;-66
2021/01/16 04:21:00;;;;;;;43.33;4.22;;;;;;;9.26;100.00;102315.31;5077044;28;20043;-66
2021/01/16 04:23:26;;;;;;;39.33;4.68;;;;;;;9.26;100.00;102312.59;5076942;28;20036;-67
2021/01/16 04:25:51;;;;;;;36.40;4.85;;;;;;;9.24;100.00;102306.50;5076826;28;20396;-66
2021/01/16 04:28:17;;;;;;;56.45;5.47;;;;;;;9.27;100.00;102297.06;5077013;28;20032;-66
2021/01/16 04:30:43;;;;;;;44.72;4.88;;;;;;;9.28;100.00;102290.59;5077153;28;20086;-66
2021/01/16 04:33:08;;;;;;;49.35;5.55;;;;;;;9.30;100.00;102285.78;5076989;28;20044;-66
2021/01/16 04:35:37;;;;;;;54.40;6.18;;;;;;;9.32;100.00;102292.72;5041081;28;20056;-66
2021/01/16 04:38:03;;;;;;;43.78;4.65;;;;;;;9.35;100.00;102281.41;5076802;28;20040;-66
2021/01/16 04:40:30;;;;;;;48.70;5.65;;;;;;;9.39;100.00;102275.56;5076786;28;20048;-66
2021/01/16 04:42:56;;;;;;;55.95;6.13;;;;;;;9.44;100.00;102267.63;5076738;28;20127;-66
2021/01/16 04:45:23;;;;;;;43.35;5.63;;;;;;;9.46;100.00;102266.38;5076801;28;20040;-66
2021/01/16 04:47:50;;;;;;;43.67;5.10;;;;;;;9.48;100.00;102268.91;5076754;28;20479;-66
2021/01/16 04:50:17;;;;;;;56.92;5.97;;;;;;;9.48;100.00;102253.38;5076768;28;20051;-66
2021/01/16 04:52:44;;;;;;;47.72;5.13;;;;;;;9.49;100.00;102237.84;5076720;28;20123;-66
2021/01/16 04:55:12;;;;;;;43.55;4.45;;;;;;;9.49;100.00;102237.84;5072994;28;20047;-66
2021/01/16 04:57:39;;;;;;;42.90;5.18;;;;;;;9.49;100.00;102229.69;5073515;28;20037;-66
2021/01/16 05:00:10;;;;;;;57.00;5.38;;;;;;;9.48;100.00;102236.16;5073355;28;20275;-66
2021/01/16 05:02:41;;;;;;;48.97;5.90;;;;;;;9.49;100.00;102226.94;5073435;28;20558;-66
2021/01/16 05:05:10;;;;;;;56.33;6.90;;;;;;;9.53;100.00;102211.84;5073284;28;20071;-66
2021/01/16 05:07:37;;;;;;;36.22;5.43;;;;;;;9.58;100.00;102212.13;5073337;28;20059;-66
2021/01/16 05:10:08;;;;;;;43.65;4.82;;;;;;;9.59;100.00;102200.16;5073712;28;20048;-66
2021/01/16 05:12:47;;;;;;;46.65;5.50;;;;;;;9.61;100.00;102192.59;5073204;28;20072;-66
2021/01/16 05:15:24;;;;;;;56.10;5.97;;;;;;;9.63;100.00;102185.06;5073281;28;20116;-66
2021/01/16 05:18:06;;;;;;;43.85;5.05;;;;;;;9.67;100.00;102175.41;5073215;28;20068;-66
2021/01/16 05:20:38;;;;;;;21.95;3.30;;;;;;;9.70;100.00;102175.00;5073301;28;20036;-66
2021/01/16 05:23:16;;;;;;;31.88;4.13;;;;;;;9.72;100.00;102167.50;5073115;28;20039;-66
2021/01/16 05:25:53;;;;;;;24.95;2.80;;;;;;;9.77;100.00;102169.59;5056730;28;20060;-66
2021/01/16 05:28:21;;;;;;;20.77;2.33;;;;;;;9.79;100.00;102157.44;5073181;28;20481;-67
2021/01/16 05:30:54;;;;;;;29.67;2.83;;;;;;;9.83;100.00;102142.31;5072867;28;20032;-66
2021/01/16 05:33:22;;;;;;;26.73;3.63;;;;;;;9.85;100.00;102142.94;5072888;28;20037;-66
2021/01/16 05:35:52;;;;;;;19.10;2.70;;;;;;;9.88;100.00;102137.06;5072849;28;20478;-66
2021/01/16 05:38:24;;;;;;;20.05;2.90;;;;;;;9.92;100.00;102137.53;5072701;28;20036;-66
2021/01/16 05:40:53;;;;;;;22.98;2.67;;;;;;;9.94;100.00;102133.53;5072734;28;20466;-66
2021/01/16 05:43:19;;;;;;;19.27;2.72;;;;;;;9.97;100.00;102115.91;5072618;28;20131;-66
2021/01/16 05:45:47;;;;;;;23.05;3.60;;;;;;;9.98;100.00;102129.34;5072667;28;20044;-66
2021/01/16 05:48:14;;;;;;;12.98;2.63;;;;;;;10.02;100.00;102118.00;5072604;28;20046;-66
2021/01/16 05:50:40;;;;;;;16.40;2.25;;;;;;;10.05;100.00;102123.03;5072530;28;20048;-66
2021/01/16 05:53:06;;;;;;;27.58;2.35;;;;;;;10.06;100.00;102102.88;5072444;28;20033;-67
2021/01/16 05:55:33;;;;;;;22.88;3.75;;;;;;;10.08;100.00;102098.94;5072474;28;20033;-66
2021/01/16 05:58:06;;;;;;;22.05;3.00;;;;;;;10.11;100.00;102092.19;5072401;28;20116;-66
2021/01/16 06:00:37;;;;;;;21.38;2.97;;;;;;;10.13;100.00;102088.22;5072298;28;20036;-66
2021/01/16 06:03:05;;;;;;;18.35;2.03;;;;;;;10.16;100.00;102084.22;5072755;28;20045;-66
2021/01/16 06:05:33;;;;;;;15.70;1.77;;;;;;;10.20;100.00;102063.63;5071827;28;20041;-66
2021/01/16 06:07:59;;;;;;;13.35;2.00;;;;;;;10.20;100.00;102088.22;5072244;28;20033;-66
2021/01/16 06:10:25;;;;;;;16.00;1.90;;;;;;;10.26;100.00;102081.97;5072253;28;20055;-66
2021/01/16 06:12:52;;;;;;;7.88;1.27;;;;;;;10.26;100.00;102073.75;5072223;28;20044;-67
2021/01/16 06:15:20;;;;;;;15.00;1.48;;;;;;;10.29;100.00;102070.59;5072023;28;20104;-66
2021/01/16 06:17:48;;;;;;;12.85;2.15;;;;;;;10.31;100.00;102063.03;5054016;28;20036;-67
2021/01/16 06:20:17;;;;;;;13.02;1.88;;;;;;;10.33;100.00;102047.28;5071785;28;20040;-67
2021/01/16 06:22:42;;;;;;;21.40;2.53;;;;;;;10.36;100.00;102052.31;5071842;28;20047;-66
2021/01/16 06:25:20;;;;;;;19.60;1.90;;;;;;;10.38;100.00;102042.03;5071688;28;20052;-66
2021/01/16 06:27:47;;;;;;;14.60;2.55;;;;;;;10.42;100.00;102032.38;5071780;28;20101;-67
2021/01/16 06:30:15;;;;;;;15.60;2.13;;;;;;;10.44;100.00;102035.72;5071791;28;20028;-66
2021/01/16 06:32:49;;;;;;;15.90;2.22;;;;;;;10.46;100.00;102030.06;5071655;28;20078;-66
2021/01/16 06:35:17;;;;;;;21.60;3.25;;;;;;;10.49;100.00;102026.88;5071666;28;20062;-66
2021/01/16 06:37:45;;;;;;;18.40;3.95;;;;;;;10.49;100.00;102033.19;5071507;28;20037;-66
2021/01/16 06:40:13;;;;;;;15.98;2.45;;;;;;;10.52;100.00;102027.28;5071518;28;20044;-66
2021/01/16 06:42:40;;;;;;;13.93;2.00;;;;;;;10.54;100.00;102024.34;5071549;28;20056;-66
2021/01/16 06:45:10;;;;;;;22.08;2.05;;;;;;;10.54;100.00;102017.00;5071493;28;20047;-66
2021/01/16 06:47:39;;;;;;;13.57;2.00;;;;;;;10.57;100.00;102015.72;5052593;28;20044;-66
2021/01/16 06:50:07;;;;;;;10.40;1.70;;;;;;;10.60;100.00;102018.06;5071356;28;20046;-66
2021/01/16 06:52:33;;;;;;;12.32;1.98;;;;;;;10.64;100.00;101991.13;5071273;28;20652;-66
2021/01/16 06:55:03;;;;;;;10.98;1.65;;;;;;;10.64;100.00;101999.34;5071223;28;20034;-67
2021/01/16 06:57:30;;;;;;;14.20;1.63;;;;;;;10.66;100.00;101994.50;5071264;28;20123;-67
2021/01/16 06:59:59;;;;;;;17.33;2.80;;;;;;;10.68;100.00;101995.09;5071171;28;20049;-66
2021/01/16 07:02:29;;;;;;;19.08;2.08;;;;;;;10.68;100.00;101985.03;5071307;28;20040;-66
2021/01/16 07:05:05;;;;;;;26.70;3.30;;;;;;;10.69;100.00;101989.44;5071108;28;20040;-66
2021/01/16 07:07:35;;;;;;;18.98;2.38;;;;;;;10.71;100.00;101970.09;5071195;28;20270;-66
2021/01/16 07:10:11;;;;;;;10.85;2.13;;;;;;;10.70;100.00;101979.34;5070953;28;20040;-66
2021/01/16 07:12:41;;;;;;;17.80;1.70;;;;;;;10.71;100.00;101991.94;5071059;28;20040;-66
2021/01/16 07:15:07;;;;;;;14.30;1.90;;;;;;;10.71;100.00;101975.53;5071015;28;20552;-67
2021/01/16 07:17:33;;;;;;;18.42;3.00;;;;;;;10.73;100.00;101989.81;5070340;28;20048;-67
2021/01/16 07:19:59;;;;;;;21.73;2.50;;;;;;;10.77;100.00;101974.72;5070921;28;20509;-66
2021/01/16 07:22:41;;;;;;;12.63;2.35;;;;;;;10.80;100.00;101957.88;5070931;28;20115;-67
2021/01/16 07:25:09;;;;;;;22.73;3.05;;;;;;;10.81;100.00;101954.09;5070534;28;20052;-67
2021/01/16 07:27:39;;;;;;;16.35;2.35;;;;;;;10.80;100.00;101968.81;5070864;28;20119;-67
2021/01/16 07:30:08;;;;;;;16.10;2.15;;;;;;;10.82;100.00;101953.03;5070970;28;20044;-66
2021/01/16 07:32:45;;;;;;;17.38;1.65;;;;;;;10.83;100.00;101968.38;5053380;28;20086;-66
2021/01/16 07:35:13;;;;;;;18.48;2.90;;;;;;;10.85;100.00;101971.72;5070842;28;20494;-67
2021/01/16 07:37:40;;;;;;;24.85;3.30;;;;;;;10.85;100.00;101960.78;5070730;28;20037;-66
2021/01/16 07:40:19;;;;;;;22.40;1.95;;;;;;;10.84;100.00;101970.88;5070580;28;20123;-66
2021/01/16 07:42:52;;;;;;;11.43;1.30;;;;;;;10.85;100.00;101967.09;5054336;28;20146;-67
2021/01/16 07:45:37;;;;;;;14.15;1.90;;;;;;;10.85;100.00;101971.72;5070640;28;20117;-66
2021/01/16 07:48:04;;;;;;;11.98;2.15;;;;;;;10.85;100.00;101967.09;5070857;28;20043;-66
2021/01/16 07:50:35;;;;;;;9.55;1.60;;;;;;;10.85;100.00;101961.63;5070644;28;20040;-67
2021/01/16 07:53:02;;;;;;;14.63;2.00;;;;;;;10.84;100.00;101970.03;5070781;28;20045;-66
2021/01/16 07:55:36;;;;;;;16.00;2.40;;;;;;;10.82;100.00;101963.94;5070632;28;20093;-66
2021/01/16 07:58:30;;;;;;;11.18;1.63;;;;;;;10.81;100.00;101967.75;5070515;28;20436;-67
2021/01/16 08:00:59;;;;;;;15.20;2.65;;;;;;;10.76;100.00;101962.06;5070531;28;20040;-67
2021/01/16 08:04:11;;;;;;;3.80;0.70;;;;;;;10.75;100.00;101974.06;5070851;28;20348;-66
2021/01/16 08:06:58;;;;;;;1.70;0.30;;;;;;;10.60;100.00;101963.41;5070628;28;20028;-66
2021/01/16 08:09:48;;;;;;;0.75;0.10;;;;;;;10.51;100.00;101970.16;5070674;28;20225;-67
2021/01/16 08:12:15;;;;;;;3.13;0.25;;;;;;;10.35;100.00;101971.44;5070345;28;20501;-66
2021/01/16 08:14:41;;;;;;;0.85;0.20;;;;;;;10.30;100.00;101963.06;5070849;28;20043;-66
2021/01/16 08:17:27;;;;;;;1.85;0.30;;;;;;;10.24;100.00;101981.13;5070278;28;20177;-66
2021/01/16 08:19:52;;;;;;;3.58;0.35;;;;;;;10.22;100.00;101977.75;5070411;28;20565;-67
2021/01/16 08:22:19;;;;;;;4.63;0.75;;;;;;;10.21;100.00;101969.78;5070427;28;20534;-67
2021/01/16 08:24:56;;;;;;;5.45;0.80;;;;;;;10.20;100.00;101979.81;5052312;28;20407;-67
2021/01/16 08:27:24;;;;;;;4.93;0.43;;;;;;;10.20;100.00;101976.25;5070347;28;20035;-67
2021/01/16 08:29:50;;;;;;;4.75;0.60;;;;;;;10.19;100.00;101982.78;5072875;28;20036;-66
2021/01/16 08:32:16;;;;;;;4.40;0.60;;;;;;;10.18;100.00;101992.00;5074463;28;20047;-67
2021/01/16 08:34:55;;;;;;;7.22;1.13;;;;;;;10.18;100.00;102002.94;5074007;28;20044;-67
2021/01/16 08:37:40;;;;;;;10.82;1.77;;;;;;;10.16;100.00;101994.13;5074184;28;20054;-66
2021/01/16 08:40:09;;;;;;;10.48;1.27;;;;;;;10.18;100.00;102014.69;5074038;28;20044;-67
2021/01/16 08:42:53;;;;;;;13.48;2.25;;;;;;;10.19;100.00;102021.00;5074185;28;20040;-67
2021/01/16 08:45:19;;;;;;;15.27;1.33;;;;;;;10.19;100.00;102007.34;5073965;28;20049;-67
2021/01/16 08:47:52;;;;;;;12.77;1.50;;;;;;;10.20;100.00;102011.75;5073886;28;20486;-66
2021/01/16 08:50:18;;;;;;;10.25;1.70;;;;;;;10.21;100.00;102013.47;5055591;28;20047;-67
2021/01/16 08:52:44;;;;;;;18.77;2.47;;;;;;;10.23;100.00;102027.75;5073721;28;20044;-66
2021/01/16 08:55:10;;;;;;;10.73;1.58;;;;;;;10.23;100.00;102034.03;5073681;28;20036;-66
2021/01/16 08:57:37;;;;;;;21.52;2.25;;;;;;;10.24;100.00;102045.84;5073677;28;20087;-66
2021/01/16 09:00:23;;;;;;;15.80;1.67;;;;;;;10.24;100.00;102034.91;5073445;28;20390;-67
2021/01/16 09:03:05;;;;;;;13.15;1.73;;;;;;;10.25;100.00;102042.06;5073399;28;20032;-67
2021/01/16 09:05:32;;;;;;;13.93;2.45;;;;;;;10.24;100.00;102035.75;5073395;28;20387;-67
2021/01/16 09:07:59;;;;;;;16.55;1.70;;;;;;;10.26;100.00;102038.28;5073410;28;20062;-67
2021/01/16 09:10:26;;;;;;;17.50;2.17;;;;;;;10.26;100.00;102049.19;5073330;28;20041;-67
2021/01/16 09:12:52;;;;;;;17.58;2.13;;;;;;;10.27;100.00;102061.78;5073292;28;20036;-66
2021/01/16 09:15:39;;;;;;;19.05;2.38;;;;;;;10.28;100.00;102058.00;5073282;28;20508;-66
2021/01/16 09:18:08;;;;;;;19.05;2.33;;;;;;;10.29;100.00;102067.88;5073283;28;20449;-67
2021/01/16 09:20:53;;;;;;;22.25;3.25;;;;;;;10.28;100.00;102066.19;5073369;28;20387;-67
2021/01/16 09:23:19;;;;;;;14.65;2.10;;;;;;;10.29;100.00;102070.59;5058639;28;20090;-66
2021/01/16 09:25:50;;;;;;;18.85;2.58;;;;;;;10.31;100.00;102073.97;5072882;28;20044;-67
2021/01/16 09:28:15;;;;;;;16.83;2.88;;;;;;;10.31;100.00;102070.41;5073146;28;20033;-67
2021/01/16 09:30:41;;;;;;;20.48;3.40;;;;;;;10.30;100.00;102077.75;5072936;28;20470;-67
2021/01/16 09:33:24;;;;;;;19.05;2.58;;;;;;;10.31;100.00;102073.97;5054901;28;20031;-67
2021/01/16 09:35:51;;;;;;;18.05;1.75;;;;;;;10.31;100.00;102076.69;5073164;28;20115;-66
2021/01/16 09:38:22;;;;;;;23.85;2.97;;;;;;;10.32;100.00;102086.56;5072675;28;20036;-66
2021/01/16 09:40:49;;;;;;;15.82;2.13;;;;;;;10.33;100.00;102090.97;5054043;28;20028;-67
2021/01/16 09:43:17;;;;;;;23.27;3.08;;;;;;;10.33;100.00;102093.72;5072824;28;20039;-66
2021/01/16 09:45:48;;;;;;;20.77;3.38;;;;;;;10.34;100.00;102089.94;5072754;28;20045;-66
2021/01/16 09:48:38;;;;;;;18.92;2.97;;;;;;;10.34;100.00;102089.94;5072724;28;20040;-67
2021/01/16 09:51:04;;;;;;;21.42;2.78;;;;;;;10.36;100.00;102097.91;5072608;28;20064;-67
2021/01/16 09:53:30;;;;;;;21.40;3.03;;;;;;;10.39;100.00;102102.94;5072374;28;20078;-67
2021/01/16 09:55:56;;;;;;;17.75;2.58;;;;;;;10.36;100.00;102104.22;5072388;28;20139;-67
2021/01/16 09:58:42;;;;;;;16.33;2.13;;;;;;;10.40;100.00;102104.63;5072416;28;20044;-67
2021/01/16 10:01:24;;;;;;;12.32;1.83;;;;;;;10.40;100.00;102105.47;5072278;28;20399;-66
2021/01/16 10:03:51;;;;;;;20.02;2.45;;;;;;;10.41;100.00;102111.75;5072288;28;20107;-67
2021/01/16 10:06:19;;;;;;;17.48;2.80;;;;;;;10.41;100.00;102107.16;5072283;28;20036;-66
2021/01/16 10:08:48;;;;;;;14.05;1.73;;;;;;;10.41;100.00;102123.56;5072156;28;20028;-67
2021/01/16 10:11:41;;;;;;;14.40;2.38;;;;;;;10.40;100.00;102119.13;5072108;28;20090;-67
2021/01/16 10:14:14;;;;;;;20.80;2.15;;;;;;;10.39;100.00;102117.44;5072126;28;20033;-66
2021/01/16 10:16:41;;;;;;;14.07;2.40;;;;;;;10.39;100.00;102122.91;5072468;28;20045;-67
2021/01/16 10:19:11;;;;;;;16.55;2.40;;;;;;;10.38;100.00;102123.97;5071950;28;20043;-67
2021/01/16 10:21:51;;;;;;;12.13;2.22;;;;;;;10.37;100.00;102126.91;5071976;28;20114;-67
2021/01/16 10:24:21;;;;;;;18.52;2.88;;;;;;;10.35;100.00;102135.31;5071719;28;20501;-66
2021/01/16 10:26:47;;;;;;;20.45;3.20;;;;;;;10.30;100.00;102115.97;5071773;28;20040;-67
2021/01/16 10:29:29;;;;;;;16.35;2.33;;;;;;;10.30;100.00;102140.56;5072049;28;20048;-66
2021/01/16 10:32:16;;;;;;;;;;;;;;;10.34;100.00;102141.81;5072224;28;20032;-67
2021/01/16 10:34:44;;;;;;;19.30;2.75;;;;;;;10.41;100.00;102144.53;5071804;28;19982;-66
2021/01/16 10:37:10;;;;;;;17.88;2.55;;;;;;;10.44;100.00;102144.16;5071827;28;20465;-66
2021/01/16 10:39:40;;;;;;;18.73;2.17;;;;;;;10.46;100.00;102142.88;5071541;28;20036;-66
2021/01/16 10:42:13;;;;;;;10.93;1.77;;;;;;;10.47;100.00;102144.56;5071491;28;20105;-66
2021/01/16 10:44:40;;;;;;;17.83;2.40;;;;;;;10.52;100.00;102147.50;5071545;28;20117;-67
2021/01/16 10:47:36;;;;;;;11.95;1.70;;;;;;;10.56;100.00;102146.03;5053720;28;20464;-67
2021/01/16 10:50:09;;;;;;;12.40;1.80;;;;;;;10.58;100.00;102157.56;4989816;28;20096;-67
2021/01/16 10:52:36;;;;;;;19.77;2.42;;;;;;;10.56;100.00;102156.94;4988850;28;20042;-66
2021/01/16 10:55:10;;;;;;;9.02;1.95;;;;;;;10.63;100.00;102147.94;5060030;28;20486;-67
2021/01/16 10:57:49;;;;;;;13.45;2.47;;;;;;;10.69;100.00;102158.00;5071209;28;20037;-66
2021/01/16 11:00:19;;;;;;;15.05;2.60;;;;;;;10.76;100.00;102154.25;5071211;28;20044;-67
2021/01/16 11:02:50;;;;;;;16.45;2.60;;;;;;;10.81;100.00;102161.78;5071213;28;20072;-67
2021/01/16 11:05:15;;;;;;;11.52;2.10;;;;;;;10.87;100.00;102166.41;5071505;28;20524;-67
2021/01/16 11:07:42;;;;;;;13.68;1.85;;;;;;;10.88;100.00;102163.44;5071302;28;20036;-66
2021/01/16 11:10:13;;;;;;;18.63;2.33;;;;;;;10.81;100.00;102156.31;5071031;28;20032;-66
2021/01/16 11:12:40;;;;;;;9.10;1.83;;;;;;;10.88;100.00;102165.34;5071093;28;20122;-67
2021/01/16 11:15:25;;;;;;;17.17;2.35;;;;;;;10.88;100.00;102168.09;5052817;28;20056;-67
2021/01/16 11:17:53;;;;;;;17.70;2.85;;;;;;;10.99;100.00;102170.19;5071027;28;20093;-67
2021/01/16 11:20:32;;;;;;;12.65;1.52;;;;;;;11.00;100.00;102171.88;5070842;28;20047;-67
2021/01/16 11:23:28;;;;;;;13.48;2.20;;;;;;;11.09;100.00;102158.78;5071037;28;20033;-67
2021/01/16 11:25:54;;;;;;;14.10;1.88;;;;;;;11.18;100.00;102161.09;5062225;28;20555;-67
2021/01/16 11:28:25;;;;;;;9.88;1.60;;;;;;;11.17;100.00;102167.63;5052877;28;20371;-66